PWSweather.com
Personal Weather Stations
Station Observations
KCTHAMDEN
Dunbar Hill, Hamden, CT 06514

Dunbar HillHamden, CT 06514

Lat: 41.365437, Lon: -72.956532

Elevation: 200

Station Type: Davis Vantage Pro2+

www.hamdenweather.com

High Low Average
Temperature 51.3°F10.7°F 42.7°F5.9°F 46.2°F7.9°F
Dew Point 49.3°F9.6°F 36.2°F2.3°F 43.0°F6.1°F
Winds 7.2 mph -11.6 mph - Calm Calm 1.3 mph 2.1 mph
Wind Gusts 15.0 mph24.1 mph -- 2.8 mph4.5 mph
Humidity 98% 72% 89%
Pressure 30.26 in1024.70 in 30.09 in1019.00 in -
Precipitation 0.06 in1.50 in - -
Hour Temp Dew Point Humidity Winds Wind Gusts Pressure Precip Precip Rate Daily Precip Total
12:00 AM 43.1°F6.2°C 41.8°F5.4°C 95% Calm Calm -- 30.26 in1024.7 mb - 0.00 in0.0 mm 0.00 in0.0 mm
12:15 AM 43.3°F6.3°C 42.0°F5.6°C 95% Calm Calm -- 30.25 in1024.4 mb - 0.00 in0.0 mm 0.00 in0.0 mm
12:30 AM 43.7°F6.5°C 42.6°F5.9°C 96% Calm Calm -- 30.25 in1024.4 mb - 0.00 in0.0 mm 0.00 in0.0 mm
12:45 AM 43.9°F6.6°C 42.9°F6.1°C 96% Calm Calm -- 30.25 in1024.4 mb - 0.00 in0.0 mm 0.00 in0.0 mm
01:00 AM 43.9°F6.6°C 42.8°F6.0°C 96% Calm Calm -- 30.24 in1024.0 mb - 0.00 in0.0 mm 0.00 in0.0 mm
01:15 AM 44.0°F6.7°C 42.9°F6.1°C 96% Calm Calm -- 30.24 in1024.0 mb - 0.01 in0.3 mm 0.01 in0.3 mm
01:30 AM 44.1°F6.7°C 43.0°F6.1°C 96% Calm Calm -- 30.24 in1024.0 mb - 0.00 in0.0 mm 0.01 in0.3 mm
01:45 AM 44.1°F6.7°C 43.0°F6.1°C 96% Calm Calm -- 30.24 in1024.0 mb - 0.00 in0.0 mm 0.01 in0.3 mm
02:00 AM 44.2°F6.8°C 43.1°F6.2°C 96% Calm Calm -- 30.24 in1024.0 mb - 0.00 in0.0 mm 0.01 in0.3 mm
02:15 AM 44.1°F6.7°C 43.0°F6.1°C 96% Calm Calm -- 30.24 in1024.0 mb - 0.00 in0.0 mm 0.01 in0.3 mm
02:30 AM 44.0°F6.7°C 42.9°F6.1°C 96% Calm Calm -- 30.24 in1024.0 mb - 0.01 in0.3 mm 0.02 in0.5 mm
02:45 AM 43.8°F6.6°C 42.7°F5.9°C 96% Calm Calm -- 30.24 in1024.0 mb - 0.00 in0.0 mm 0.02 in0.5 mm
03:00 AM 43.7°F6.5°C 42.6°F5.9°C 96% Calm Calm -- 30.23 in1023.7 mb - 0.00 in0.0 mm 0.02 in0.5 mm
03:15 AM 43.7°F6.5°C 42.6°F5.9°C 96% Calm Calm -- 30.22 in1023.4 mb - 0.01 in0.3 mm 0.03 in0.8 mm
03:30 AM 43.5°F6.4°C 42.5°F5.8°C 96% 0.2 mph S0.3 kmh S 2.0 mph3.2 kmh 30.20 in1022.7 mb - 0.00 in0.0 mm 0.03 in0.8 mm
03:45 AM 43.4°F6.3°C 42.3°F5.7°C 96% Calm Calm -- 30.21 in1023.0 mb - 0.00 in0.0 mm 0.03 in0.8 mm
04:00 AM 43.2°F6.2°C 42.1°F5.6°C 96% Calm Calm -- 30.21 in1023.0 mb - 0.00 in0.0 mm 0.03 in0.8 mm
04:15 AM 43.1°F6.2°C 42.0°F5.6°C 96% Calm Calm -- 30.20 in1022.7 mb - 0.00 in0.0 mm 0.03 in0.8 mm
04:30 AM 43.1°F6.2°C 42.0°F5.6°C 96% Calm Calm -- 30.20 in1022.7 mb - 0.00 in0.0 mm 0.03 in0.8 mm
04:45 AM 43.0°F6.1°C 41.9°F5.5°C 96% Calm Calm -- 30.19 in1022.4 mb - 0.00 in0.0 mm 0.03 in0.8 mm
05:00 AM 43.1°F6.2°C 42.0°F5.6°C 96% Calm Calm -- 30.20 in1022.7 mb - 0.00 in0.0 mm 0.03 in0.8 mm
05:15 AM 43.1°F6.2°C 42.1°F5.6°C 96% Calm Calm -- 30.20 in1022.7 mb - 0.00 in0.0 mm 0.03 in0.8 mm
05:30 AM 43.2°F6.2°C 42.1°F5.6°C 96% Calm Calm -- 30.20 in1022.7 mb - 0.00 in0.0 mm 0.03 in0.8 mm
05:45 AM 43.1°F6.2°C 42.1°F5.6°C 96% 0.4 mph S0.6 kmh S 2.0 mph3.2 kmh 30.20 in1022.7 mb - 0.00 in0.0 mm 0.03 in0.8 mm
06:00 AM 43.1°F6.2°C 42.0°F5.6°C 96% Calm Calm -- 30.20 in1022.7 mb - 0.00 in0.0 mm 0.03 in0.8 mm
06:15 AM 43.0°F6.1°C 42.2°F5.7°C 97% Calm Calm -- 30.20 in1022.7 mb - 0.00 in0.0 mm 0.03 in0.8 mm
06:30 AM 42.9°F6.1°C 42.1°F5.6°C 97% Calm Calm -- 30.19 in1022.4 mb - 0.00 in0.0 mm 0.03 in0.8 mm
06:45 AM 43.1°F6.2°C 42.3°F5.7°C 97% Calm Calm -- 30.20 in1022.7 mb - 0.00 in0.0 mm 0.03 in0.8 mm
07:00 AM 42.9°F6.1°C 42.1°F5.6°C 97% Calm Calm -- 30.20 in1022.7 mb - 0.00 in0.0 mm 0.03 in0.8 mm
07:15 AM 42.7°F5.9°C 41.9°F5.5°C 97% Calm Calm -- 30.20 in1022.7 mb - 0.00 in0.0 mm 0.03 in0.8 mm
07:30 AM 42.9°F6.1°C 42.1°F5.6°C 97% Calm Calm -- 30.20 in1022.7 mb - 0.00 in0.0 mm 0.03 in0.8 mm
07:45 AM 42.9°F6.1°C 42.1°F5.6°C 97% Calm Calm -- 30.20 in1022.7 mb - 0.00 in0.0 mm 0.03 in0.8 mm
08:00 AM 43.0°F6.1°C 42.2°F5.7°C 97% Calm Calm -- 30.19 in1022.4 mb - 0.00 in0.0 mm 0.03 in0.8 mm
08:15 AM 43.2°F6.2°C 42.4°F5.8°C 97% Calm Calm -- 30.20 in1022.7 mb - 0.00 in0.0 mm 0.03 in0.8 mm
08:30 AM 43.3°F6.3°C 42.5°F5.8°C 97% Calm Calm -- 30.21 in1023.0 mb - 0.00 in0.0 mm 0.03 in0.8 mm
08:45 AM 43.6°F6.4°C 42.8°F6.0°C 97% Calm Calm -- 30.22 in1023.4 mb - 0.00 in0.0 mm 0.03 in0.8 mm
09:00 AM 43.6°F6.4°C 42.8°F6.0°C 97% Calm Calm -- 30.20 in1022.7 mb - 0.02 in0.5 mm 0.05 in1.3 mm
09:15 AM 44.9°F7.2°C 44.1°F6.7°C 97% Calm Calm -- 30.22 in1023.4 mb - 0.01 in0.3 mm 0.06 in1.5 mm
09:30 AM 45.3°F7.4°C 44.5°F6.9°C 97% Calm Calm -- 30.22 in1023.4 mb - 0.00 in0.0 mm 0.06 in1.5 mm
09:45 AM 45.3°F7.4°C 44.5°F6.9°C 97% Calm Calm -- 30.21 in1023.0 mb - 0.00 in0.0 mm 0.06 in1.5 mm
10:00 AM 45.4°F7.4°C 44.6°F7.0°C 97% Calm Calm -- 30.20 in1022.7 mb - 0.00 in0.0 mm 0.06 in1.5 mm
10:15 AM 45.8°F7.7°C 45.0°F7.2°C 97% Calm Calm -- 30.20 in1022.7 mb - 0.00 in0.0 mm 0.06 in1.5 mm
10:30 AM 46.6°F8.1°C 46.1°F7.8°C 98% Calm Calm -- 30.19 in1022.4 mb - 0.00 in0.0 mm 0.06 in1.5 mm
10:45 AM 47.4°F8.6°C 46.9°F8.3°C 98% Calm Calm -- 30.18 in1022.0 mb - 0.00 in0.0 mm 0.06 in1.5 mm
11:00 AM 48.1°F8.9°C 47.6°F8.7°C 98% Calm Calm -- 30.17 in1021.7 mb - 0.00 in0.0 mm 0.06 in1.5 mm
11:15 AM 48.7°F9.3°C 48.2°F9.0°C 98% Calm Calm -- 30.16 in1021.3 mb - 0.00 in0.0 mm 0.06 in1.5 mm
11:30 AM 49.1°F9.5°C 48.6°F9.2°C 98% Calm Calm -- 30.16 in1021.3 mb - 0.00 in0.0 mm 0.06 in1.5 mm
11:45 AM 49.4°F9.7°C 48.9°F9.4°C 98% 0.9 mph N1.4 kmh N 1.0 mph1.6 kmh 30.15 in1021.0 mb - 0.00 in0.0 mm 0.06 in1.5 mm
12:00 PM 49.1°F9.5°C 48.3°F9.1°C 97% 4.2 mph NE6.8 kmh NE 7.0 mph11.3 kmh 30.14 in1020.7 mb - 0.00 in0.0 mm 0.06 in1.5 mm
12:15 PM 49.2°F9.6°C 48.4°F9.1°C 97% Calm Calm -- 30.13 in1020.3 mb - 0.00 in0.0 mm 0.06 in1.5 mm
12:30 PM 49.9°F9.9°C 49.1°F9.5°C 97% Calm Calm -- 30.14 in1020.7 mb - 0.00 in0.0 mm 0.06 in1.5 mm
12:45 PM 50.4°F10.2°C 49.3°F9.6°C 96% 0.3 mph N0.5 kmh N 5.0 mph8.0 kmh 30.14 in1020.7 mb - 0.00 in0.0 mm 0.06 in1.5 mm
01:00 PM 50.7°F10.4°C 48.7°F9.3°C 93% 2.5 mph N4.0 kmh N 3.0 mph4.8 kmh 30.13 in1020.3 mb - 0.00 in0.0 mm 0.06 in1.5 mm
01:15 PM 51.1°F10.6°C 47.6°F8.7°C 88% 0.2 mph WSW0.3 kmh WSW 2.0 mph3.2 kmh 30.12 in1020.0 mb - 0.00 in0.0 mm 0.06 in1.5 mm
01:30 PM 51.3°F10.7°C 47.3°F8.5°C 86% 0.6 mph N1.0 kmh N 1.0 mph1.6 kmh 30.12 in1020.0 mb - 0.00 in0.0 mm 0.06 in1.5 mm
01:45 PM 51.3°F10.7°C 46.6°F8.1°C 84% 0.2 mph NE0.3 kmh NE -- 30.13 in1020.3 mb - 0.00 in0.0 mm 0.06 in1.5 mm
02:00 PM 51.0°F10.6°C 46.0°F7.8°C 83% 2.0 mph NE3.2 kmh NE 3.0 mph4.8 kmh 30.13 in1020.3 mb - 0.00 in0.0 mm 0.06 in1.5 mm
02:15 PM 50.8°F10.4°C 45.5°F7.5°C 82% 0.1 mph NNE0.2 kmh NNE 2.0 mph3.2 kmh 30.12 in1020.0 mb - 0.00 in0.0 mm 0.06 in1.5 mm
02:30 PM 50.6°F10.3°C 45.6°F7.6°C 83% 1.8 mph N2.9 kmh N 5.0 mph8.0 kmh 30.12 in1020.0 mb - 0.00 in0.0 mm 0.06 in1.5 mm
02:45 PM 50.5°F10.3°C 45.8°F7.7°C 84% 2.8 mph NNE4.5 kmh NNE 5.0 mph8.0 kmh 30.13 in1020.3 mb - 0.00 in0.0 mm 0.06 in1.5 mm
03:00 PM 50.3°F10.2°C 45.6°F7.6°C 84% Calm Calm -- 30.13 in1020.3 mb - 0.00 in0.0 mm 0.06 in1.5 mm
03:15 PM 50.2°F10.1°C 45.6°F7.6°C 84% Calm Calm -- 30.13 in1020.3 mb - 0.00 in0.0 mm 0.06 in1.5 mm
03:30 PM 50.2°F10.1°C 45.6°F7.6°C 84% Calm Calm -- 30.13 in1020.3 mb - 0.00 in0.0 mm 0.06 in1.5 mm
03:45 PM 50.0°F10.0°C 45.7°F7.6°C 85% Calm Calm -- 30.13 in1020.3 mb - 0.00 in0.0 mm 0.06 in1.5 mm
04:00 PM 49.7°F9.8°C 45.4°F7.4°C 85% 1.1 mph NE1.8 kmh NE 4.0 mph6.4 kmh 30.13 in1020.3 mb - 0.00 in0.0 mm 0.06 in1.5 mm
04:15 PM 49.4°F9.7°C 45.1°F7.3°C 85% 1.2 mph NNE1.9 kmh NNE 3.0 mph4.8 kmh 30.12 in1020.0 mb - 0.00 in0.0 mm 0.06 in1.5 mm
04:30 PM 49.0°F9.4°C 44.7°F7.1°C 85% 3.0 mph N4.8 kmh N 4.0 mph6.4 kmh 30.12 in1020.0 mb - 0.00 in0.0 mm 0.06 in1.5 mm
04:45 PM 48.7°F9.3°C 44.4°F6.9°C 85% 5.2 mph NNE8.4 kmh NNE 7.0 mph11.3 kmh 30.11 in1019.6 mb - 0.00 in0.0 mm 0.06 in1.5 mm
05:00 PM 48.6°F9.2°C 44.0°F6.7°C 84% 2.9 mph N4.7 kmh N 4.0 mph6.4 kmh 30.10 in1019.3 mb - 0.00 in0.0 mm 0.06 in1.5 mm
05:15 PM 48.7°F9.3°C 44.1°F6.7°C 84% 2.6 mph NE4.2 kmh NE 7.0 mph11.3 kmh 30.09 in1019.0 mb - 0.00 in0.0 mm 0.06 in1.5 mm
05:30 PM 48.6°F9.2°C 44.0°F6.7°C 84% 4.5 mph NNE7.2 kmh NNE 11.0 mph17.7 kmh 30.09 in1019.0 mb - 0.00 in0.0 mm 0.06 in1.5 mm
05:45 PM 48.5°F9.2°C 43.9°F6.6°C 84% 0.7 mph NE1.1 kmh NE 1.0 mph1.6 kmh 30.12 in1020.0 mb - 0.00 in0.0 mm 0.06 in1.5 mm
06:00 PM 48.4°F9.1°C 43.5°F6.4°C 83% 2.8 mph WSW4.5 kmh WSW 11.0 mph17.7 kmh 30.15 in1021.0 mb - 0.00 in0.0 mm 0.06 in1.5 mm
06:15 PM 48.4°F9.1°C 43.2°F6.2°C 82% 3.9 mph NNE6.3 kmh NNE 7.0 mph11.3 kmh 30.15 in1021.0 mb - 0.00 in0.0 mm 0.06 in1.5 mm
06:30 PM 48.3°F9.1°C 43.1°F6.2°C 82% 2.6 mph WSW4.2 kmh WSW 5.0 mph8.0 kmh 30.14 in1020.7 mb - 0.00 in0.0 mm 0.06 in1.5 mm
06:45 PM 48.3°F9.1°C 42.4°F5.8°C 80% 5.1 mph W8.2 kmh W 9.0 mph14.5 kmh 30.15 in1021.0 mb - 0.00 in0.0 mm 0.06 in1.5 mm
07:00 PM 48.3°F9.1°C 42.1°F5.6°C 79% 2.7 mph W4.3 kmh W 9.0 mph14.5 kmh 30.17 in1021.7 mb - 0.00 in0.0 mm 0.06 in1.5 mm
07:15 PM 48.2°F9.0°C 41.7°F5.4°C 78% 3.1 mph NE5.0 kmh NE 4.0 mph6.4 kmh 30.17 in1021.7 mb - 0.00 in0.0 mm 0.06 in1.5 mm
07:30 PM 48.0°F8.9°C 41.2°F5.1°C 77% 5.0 mph NE8.0 kmh NE 9.0 mph14.5 kmh 30.18 in1022.0 mb - 0.00 in0.0 mm 0.06 in1.5 mm
07:45 PM 47.9°F8.8°C 40.7°F4.8°C 76% 2.7 mph N4.3 kmh N 5.0 mph8.0 kmh 30.17 in1021.7 mb - 0.00 in0.0 mm 0.06 in1.5 mm
08:00 PM 47.5°F8.6°C 40.3°F4.6°C 76% 2.8 mph NNE4.5 kmh NNE 4.0 mph6.4 kmh 30.16 in1021.3 mb - 0.00 in0.0 mm 0.06 in1.5 mm
08:15 PM 47.0°F8.3°C 39.8°F4.3°C 76% Calm Calm 2.0 mph3.2 kmh 30.16 in1021.3 mb - 0.00 in0.0 mm 0.06 in1.5 mm
08:30 PM 46.8°F8.2°C 39.6°F4.2°C 76% 4.3 mph W6.9 kmh W 11.0 mph17.7 kmh 30.16 in1021.3 mb - 0.00 in0.0 mm 0.06 in1.5 mm
08:45 PM 46.6°F8.1°C 39.1°F3.9°C 75% 3.6 mph NNE5.8 kmh NNE 4.0 mph6.4 kmh 30.17 in1021.7 mb - 0.00 in0.0 mm 0.06 in1.5 mm
09:00 PM 46.5°F8.1°C 39.0°F3.9°C 75% 3.0 mph NNE4.8 kmh NNE 4.0 mph6.4 kmh 30.19 in1022.4 mb - 0.00 in0.0 mm 0.06 in1.5 mm
09:15 PM 46.4°F8.0°C 38.9°F3.8°C 75% 0.8 mph NNE1.3 kmh NNE 3.0 mph4.8 kmh 30.19 in1022.4 mb - 0.00 in0.0 mm 0.06 in1.5 mm
09:30 PM 46.3°F7.9°C 38.8°F3.8°C 75% 4.3 mph NNE6.9 kmh NNE 7.0 mph11.3 kmh 30.20 in1022.7 mb - 0.00 in0.0 mm 0.06 in1.5 mm
09:45 PM 46.0°F7.8°C 38.5°F3.6°C 75% 2.4 mph NNE3.9 kmh NNE 12.0 mph19.3 kmh 30.19 in1022.4 mb - 0.00 in0.0 mm 0.06 in1.5 mm
10:00 PM 45.8°F7.7°C 37.3°F2.9°C 72% 5.4 mph ENE8.7 kmh ENE 11.0 mph17.7 kmh 30.19 in1022.4 mb - 0.00 in0.0 mm 0.06 in1.5 mm
10:15 PM 45.5°F7.5°C 37.0°F2.8°C 72% 4.7 mph NE7.6 kmh NE 8.0 mph12.9 kmh 30.18 in1022.0 mb - 0.00 in0.0 mm 0.06 in1.5 mm
10:30 PM 45.2°F7.3°C 36.7°F2.6°C 72% 4.1 mph NE6.6 kmh NE 10.0 mph16.1 kmh 30.18 in1022.0 mb - 0.00 in0.0 mm 0.06 in1.5 mm
10:45 PM 44.9°F7.2°C 37.1°F2.8°C 74% 5.5 mph ENE8.9 kmh ENE 11.0 mph17.7 kmh 30.18 in1022.0 mb - 0.00 in0.0 mm 0.06 in1.5 mm
11:00 PM 44.5°F6.9°C 36.7°F2.6°C 74% 5.5 mph E8.9 kmh E 13.0 mph20.9 kmh 30.15 in1021.0 mb - 0.00 in0.0 mm 0.06 in1.5 mm
11:15 PM 44.2°F6.8°C 36.8°F2.7°C 75% 7.2 mph E11.6 kmh E 15.0 mph24.1 kmh 30.16 in1021.3 mb - 0.00 in0.0 mm 0.06 in1.5 mm
11:30 PM 43.9°F6.6°C 36.4°F2.4°C 75% 6.0 mph ESE9.7 kmh ESE 8.0 mph12.9 kmh 30.18 in1022.0 mb - 0.00 in0.0 mm 0.06 in1.5 mm
11:45 PM 43.6°F6.4°C 36.2°F2.3°C 75% 2.3 mph W3.7 kmh W 4.0 mph6.4 kmh 30.17 in1021.7 mb - 0.00 in0.0 mm 0.06 in1.5 mm